createdAt,value
2023-07-31T00:00:20.757Z,98.3
2023-07-31T00:02:21.039Z,98.3
2023-07-31T00:04:21.162Z,98.3
2023-07-31T00:06:21.350Z,98.3
2023-07-31T00:08:21.691Z,98.3
2023-07-31T00:10:22.054Z,98.8
2023-07-31T00:12:22.183Z,98.3
2023-07-31T00:14:22.493Z,98.3
2023-07-31T00:16:22.830Z,99.1
2023-07-31T00:18:22.932Z,99.1
2023-07-31T00:20:23.684Z,99.1
2023-07-31T00:22:23.461Z,99.1
2023-07-31T00:24:23.893Z,99.8
2023-07-31T00:26:24.016Z,99.8
2023-07-31T00:28:24.344Z,99.8
2023-07-31T00:30:24.466Z,100
2023-07-31T00:32:24.871Z,100
2023-07-31T00:34:24.988Z,100
2023-07-31T00:36:25.267Z,100
2023-07-31T00:38:25.568Z,100
2023-07-31T00:40:25.824Z,98.9
2023-07-31T00:42:26.023Z,98.9
2023-07-31T00:44:27.904Z,98.4
2023-07-31T00:46:26.533Z,98.4
2023-07-31T00:48:27.120Z,98.4
2023-07-31T00:50:29.145Z,99
2023-07-31T00:52:27.258Z,99
2023-07-31T00:54:27.474Z,99
2023-07-31T00:56:29.014Z,99
2023-07-31T00:58:27.968Z,99
2023-07-31T01:00:28.301Z,99.9
2023-07-31T01:02:28.986Z,99.3
2023-07-31T01:04:28.870Z,99.3
2023-07-31T01:06:36.923Z,99.3
2023-07-31T01:08:39.694Z,98.7
2023-07-31T01:10:37.341Z,98.4
2023-07-31T01:12:32.126Z,99
2023-07-31T01:14:30.383Z,99.1
2023-07-31T01:16:30.353Z,98.5
2023-07-31T01:18:30.583Z,99.2
2023-07-31T01:20:32.844Z,98.7
2023-07-31T01:22:47.128Z,98.7
2023-07-31T01:24:42.961Z,98.7
2023-07-31T01:26:34.716Z,98.8
2023-07-31T01:28:41.015Z,99.5
2023-07-31T01:30:35.006Z,99.6
2023-07-31T01:32:32.914Z,99.4
2023-07-31T01:34:33.904Z,99.4
2023-07-31T01:36:33.984Z,99.4
2023-07-31T01:38:33.177Z,99.4
2023-07-31T01:40:33.332Z,99.7
2023-07-31T01:42:33.676Z,99.7
2023-07-31T01:44:34.506Z,99.7
2023-07-31T01:46:34.200Z,99.7
2023-07-31T01:48:34.385Z,99.7
2023-07-31T01:50:34.618Z,99.6
2023-07-31T01:52:34.938Z,99.6
2023-07-31T01:54:35.142Z,99.6
2023-07-31T01:56:35.420Z,99.6
2023-07-31T01:58:35.814Z,99.6
2023-07-31T02:00:35.910Z,99
2023-07-31T02:02:36.174Z,99.4
2023-07-31T02:04:37.302Z,99.4
2023-07-31T02:06:37.587Z,99.9
2023-07-31T02:08:37.004Z,99.2
2023-07-31T02:10:37.715Z,100
2023-07-31T02:12:37.422Z,99.5
2023-07-31T02:14:37.735Z,99.5
2023-07-31T02:16:38.489Z,99.5
2023-07-31T02:18:38.161Z,99.5
2023-07-31T02:20:38.530Z,98.9
2023-07-31T02:22:38.672Z,98.9
2023-07-31T02:24:38.957Z,98.3
2023-07-31T02:26:39.578Z,98.3
2023-07-31T02:28:39.543Z,98.8
2023-07-31T02:30:39.729Z,98.6
2023-07-31T02:32:40.152Z,98.6
2023-07-31T02:34:40.290Z,98.6
2023-07-31T02:36:40.965Z,98.6
2023-07-31T02:38:41.191Z,98.6
2023-07-31T02:40:41.171Z,98.4
2023-07-31T02:42:41.367Z,97.3
2023-07-31T02:44:41.905Z,97.3
2023-07-31T02:46:42.148Z,95.7
2023-07-31T02:48:42.137Z,94.9
2023-07-31T02:50:42.581Z,93.9
2023-07-31T02:52:42.750Z,92.7
2023-07-31T02:54:43.206Z,92.7
2023-07-31T02:56:43.699Z,92.1
2023-07-31T02:58:43.662Z,92.1
2023-07-31T03:00:44.368Z,91.6
2023-07-31T03:02:44.394Z,92.5
2023-07-31T03:04:44.637Z,92.5
2023-07-31T03:06:44.822Z,93.1
2023-07-31T03:08:45.230Z,93.1
2023-07-31T03:10:45.441Z,94.3
2023-07-31T03:12:47.605Z,95.9
2023-07-31T03:14:46.371Z,95.4
2023-07-31T03:16:46.582Z,95.9
2023-07-31T03:18:46.726Z,95.1
2023-07-31T03:20:47.539Z,95.8
2023-07-31T03:22:47.357Z,95.2
2023-07-31T03:24:47.660Z,95.2
2023-07-31T03:26:48.116Z,95.5
2023-07-31T03:28:48.252Z,95.5
2023-07-31T03:30:49.366Z,94.8
2023-07-31T03:32:48.928Z,94.8
2023-07-31T03:34:49.985Z,94.8
2023-07-31T03:36:49.636Z,94.8
2023-07-31T03:38:50.014Z,94.3
2023-07-31T03:40:50.041Z,94.3
2023-07-31T03:42:50.433Z,93.7
2023-07-31T03:44:51.316Z,92.1
2023-07-31T03:46:53.167Z,86.9
2023-07-31T03:48:51.465Z,83.8
2023-07-31T03:50:51.953Z,83.8
2023-07-31T03:52:52.990Z,83.8
2023-07-31T03:54:52.495Z,83.8
2023-07-31T03:56:53.055Z,83.3
2023-07-31T03:58:53.694Z,82.8
2023-07-31T04:00:53.926Z,82.3
2023-07-31T04:02:54.489Z,82.8
2023-07-31T04:04:55.031Z,82.8
2023-07-31T04:06:55.577Z,82.8
2023-07-31T04:08:56.251Z,82.8
2023-07-31T04:10:56.812Z,81.7
2023-07-31T04:12:57.443Z,81.7
2023-07-31T04:14:58.236Z,81.1
2023-07-31T04:16:59.064Z,81.1
2023-07-31T04:18:59.589Z,81.1
2023-07-31T04:21:00.342Z,81.1
2023-07-31T04:23:00.886Z,80.9
2023-07-31T04:25:01.632Z,80.9
2023-07-31T04:27:03.018Z,80.9
2023-07-31T04:29:03.226Z,82
2023-07-31T04:31:03.955Z,82
2023-07-31T04:33:04.703Z,81.8
2023-07-31T04:35:06.059Z,81.6
2023-07-31T04:37:06.302Z,80.2
2023-07-31T04:39:06.995Z,79.2
2023-07-31T04:41:07.803Z,79.2
2023-07-31T04:43:08.539Z,80.2
2023-07-31T04:45:10.200Z,80.2
2023-07-31T04:47:10.346Z,79.6
2023-07-31T04:49:12.001Z,79.6
2023-07-31T04:51:11.762Z,79.8
2023-07-31T04:53:12.668Z,79.8
2023-07-31T04:55:13.505Z,79.8
2023-07-31T04:57:15.045Z,79.8
2023-07-31T04:59:15.161Z,78.9
2023-07-31T05:01:15.954Z,79.1
2023-07-31T05:03:16.760Z,79.8
2023-07-31T05:05:17.611Z,79.3
2023-07-31T05:07:18.370Z,79.3
2023-07-31T05:09:19.236Z,79.3
2023-07-31T05:11:20.165Z,79
2023-07-31T05:13:20.960Z,78.4
2023-07-31T05:15:21.888Z,78.4
2023-07-31T05:17:23.011Z,78.4
2023-07-31T05:19:23.513Z,78.9
2023-07-31T05:21:24.365Z,78.5
2023-07-31T05:23:25.176Z,78.8
2023-07-31T05:25:26.089Z,78.8
2023-07-31T05:27:26.785Z,78.8
2023-07-31T05:29:27.675Z,78.8
2023-07-31T05:31:28.402Z,77.8
2023-07-31T05:33:29.412Z,77.2
2023-07-31T05:35:30.292Z,77.2
2023-07-31T05:37:30.982Z,77.2
2023-07-31T05:39:31.751Z,77.2
2023-07-31T05:41:32.646Z,77.3
2023-07-31T05:43:33.504Z,75.9
2023-07-31T05:45:34.436Z,75.9
2023-07-31T05:47:35.230Z,76.5
2023-07-31T05:49:36.120Z,75.7
2023-07-31T05:51:37.074Z,75.4
2023-07-31T05:53:37.875Z,75.4
2023-07-31T05:55:38.817Z,75.4
2023-07-31T05:57:40.171Z,73.9
2023-07-31T05:59:40.523Z,74.5
2023-07-31T06:01:41.518Z,74.6
2023-07-31T06:03:42.547Z,74.6
2023-07-31T06:05:43.206Z,73.8
2023-07-31T06:07:44.112Z,73.8
2023-07-31T06:09:45.069Z,73.8
2023-07-31T06:11:45.937Z,73.8
2023-07-31T06:13:47.276Z,73.8
2023-07-31T06:15:47.778Z,73.8
2023-07-31T06:17:48.671Z,73.8
2023-07-31T06:19:49.731Z,73.1
2023-07-31T06:21:50.600Z,72.9
2023-07-31T06:23:51.340Z,72.4
2023-07-31T06:25:52.344Z,73.1
2023-07-31T06:27:53.481Z,73.1
2023-07-31T06:29:54.230Z,73.1
2023-07-31T06:31:55.208Z,72.8
2023-07-31T06:33:56.793Z,72.8
2023-07-31T06:35:57.079Z,72.1
2023-07-31T06:37:57.999Z,72.1
2023-07-31T06:39:59.056Z,72.1
2023-07-31T06:41:59.912Z,71.1
2023-07-31T06:44:00.832Z,70.5
2023-07-31T06:46:05.387Z,70.2
2023-07-31T06:48:03.868Z,70.9
2023-07-31T06:50:04.319Z,69.7
2023-07-31T06:52:05.073Z,68.1
2023-07-31T06:54:05.583Z,68.1
2023-07-31T06:56:06.477Z,68.1
2023-07-31T06:58:07.447Z,68.6
2023-07-31T07:00:10.644Z,68.6
2023-07-31T07:02:09.315Z,68.5
2023-07-31T07:04:10.284Z,70.1
2023-07-31T07:06:12.575Z,67.2
2023-07-31T07:08:12.301Z,68.1
2023-07-31T07:10:13.159Z,66.4
2023-07-31T07:12:14.127Z,65.7
2023-07-31T07:14:15.991Z,65.7
2023-07-31T07:16:16.103Z,66.8
2023-07-31T07:18:17.403Z,66.8
2023-07-31T07:20:18.012Z,66.1
2023-07-31T07:22:19.067Z,65.5
2023-07-31T07:24:19.650Z,64.6
2023-07-31T07:26:20.528Z,64.6
2023-07-31T07:28:21.548Z,65.7
2023-07-31T07:30:22.426Z,65.7
2023-07-31T07:32:23.432Z,66.6
2023-07-31T07:34:26.479Z,66.6
2023-07-31T07:36:25.029Z,65
2023-07-31T07:38:25.687Z,64.5
2023-07-31T07:40:26.605Z,64.5
2023-07-31T07:42:27.343Z,63.9
2023-07-31T07:44:27.945Z,63.1
2023-07-31T07:46:28.736Z,63.2
2023-07-31T07:48:29.430Z,63.2
2023-07-31T07:50:30.089Z,62.5
2023-07-31T07:52:30.634Z,63.2
2023-07-31T07:54:31.339Z,63.2
2023-07-31T07:56:33.400Z,62.6
2023-07-31T07:58:32.717Z,62.6
2023-07-31T08:00:33.284Z,63.3
2023-07-31T08:02:33.913Z,62
2023-07-31T08:04:34.472Z,62
2023-07-31T08:06:35.086Z,62
2023-07-31T08:08:35.931Z,62.7
2023-07-31T08:10:36.252Z,61.8
2023-07-31T08:12:36.799Z,62.5
2023-07-31T08:14:37.456Z,62.5
2023-07-31T08:16:39.108Z,61.9
2023-07-31T08:18:38.620Z,63.2
2023-07-31T08:20:39.182Z,62.3
2023-07-31T08:22:39.627Z,61.8
2023-07-31T08:24:40.244Z,61.8
2023-07-31T08:26:41.518Z,63.4
2023-07-31T08:28:41.589Z,61
2023-07-31T08:30:42.361Z,61.8
2023-07-31T08:32:42.613Z,61.8
2023-07-31T08:34:43.052Z,60.2
2023-07-31T08:36:43.664Z,61.3
2023-07-31T08:38:46.262Z,61.3
2023-07-31T08:40:44.782Z,61.7
2023-07-31T08:42:46.145Z,59.9
2023-07-31T08:44:47.845Z,60.7
2023-07-31T08:46:47.988Z,59
2023-07-31T08:48:47.219Z,59.1
2023-07-31T08:50:47.716Z,59.8
2023-07-31T08:52:49.730Z,61.1
2023-07-31T08:54:48.750Z,61.1
2023-07-31T08:56:50.898Z,60
2023-07-31T08:58:51.046Z,60.9
2023-07-31T09:00:54.256Z,62.5
2023-07-31T09:02:56.421Z,62.5
2023-07-31T09:04:52.012Z,63.1
2023-07-31T09:06:57.657Z,62.5
2023-07-31T09:08:52.907Z,63.1
2023-07-31T09:10:53.386Z,62.2
2023-07-31T09:12:55.035Z,61.6
2023-07-31T09:14:54.603Z,62.1
2023-07-31T09:16:56.133Z,62.1
2023-07-31T09:18:56.819Z,61.4
2023-07-31T09:21:04.450Z,62.6
2023-07-31T09:23:05.139Z,61.9
2023-07-31T09:25:14.157Z,61.9
2023-07-31T09:26:59.819Z,61.9
2023-07-31T09:28:58.819Z,61.9
2023-07-31T09:30:59.109Z,62.8
2023-07-31T09:33:03.496Z,63.9
2023-07-31T09:35:00.285Z,64.5
2023-07-31T09:37:02.360Z,65.1
2023-07-31T09:39:03.605Z,63
2023-07-31T09:41:02.027Z,64.4
2023-07-31T09:43:04.331Z,64.4
2023-07-31T09:45:11.500Z,63.6
2023-07-31T09:47:04.064Z,63.7
2023-07-31T09:49:06.730Z,64.4
2023-07-31T09:51:05.296Z,64.2
2023-07-31T09:53:07.229Z,63.3
2023-07-31T09:55:06.631Z,63.3
2023-07-31T09:57:08.909Z,64.8
2023-07-31T09:59:10.934Z,65.5
2023-07-31T10:01:07.856Z,66.1
2023-07-31T10:03:10.026Z,65
2023-07-31T10:05:09.002Z,65
2023-07-31T10:07:09.577Z,64.3
2023-07-31T10:09:13.005Z,63.8
2023-07-31T10:11:11.174Z,64
2023-07-31T10:13:14.142Z,64
2023-07-31T10:15:12.135Z,63.4
2023-07-31T10:17:13.071Z,64.3
2023-07-31T10:19:12.678Z,64.3
2023-07-31T10:21:14.290Z,64
2023-07-31T10:23:14.746Z,64.9
2023-07-31T10:25:16.140Z,63.2
2023-07-31T10:27:15.043Z,63.8
2023-07-31T10:29:16.917Z,63.8
2023-07-31T10:31:17.266Z,62.8
2023-07-31T10:33:17.840Z,64.1
2023-07-31T10:35:18.312Z,63.6
2023-07-31T10:37:22.932Z,63.6
2023-07-31T10:39:34.490Z,64
2023-07-31T10:41:18.952Z,62.6
2023-07-31T10:43:26.757Z,62.6
2023-07-31T10:45:33.163Z,63.5
2023-07-31T10:47:20.508Z,63.5
2023-07-31T10:49:21.832Z,62.5
2023-07-31T10:51:21.681Z,63.1
2023-07-31T10:53:24.132Z,64.7
2023-07-31T10:55:26.984Z,63.7
2023-07-31T10:57:23.325Z,65
2023-07-31T10:59:27.076Z,63.9
2023-07-31T11:01:39.493Z,64.8
2023-07-31T11:03:27.187Z,64.8
2023-07-31T11:05:42.739Z,64.8
2023-07-31T11:07:26.138Z,64.7
2023-07-31T11:09:29.491Z,64.7
2023-07-31T11:11:27.126Z,64.2
2023-07-31T11:13:28.239Z,63.9
2023-07-31T11:15:28.245Z,63.3
2023-07-31T11:17:28.961Z,62.3
2023-07-31T11:19:29.453Z,62.3
2023-07-31T11:21:30.002Z,62
2023-07-31T11:23:31.201Z,63.1
2023-07-31T11:25:31.904Z,63.9
2023-07-31T11:27:38.793Z,63.9
2023-07-31T11:29:32.269Z,63.2
2023-07-31T11:31:32.837Z,63.2
2023-07-31T11:33:33.545Z,64.4
2023-07-31T11:35:36.360Z,64.4
2023-07-31T11:37:42.959Z,63
2023-07-31T11:39:35.090Z,62.5
2023-07-31T11:41:35.990Z,62.3
2023-07-31T11:43:36.425Z,63.1
2023-07-31T11:45:37.159Z,63.1
2023-07-31T11:47:38.590Z,63.2
2023-07-31T11:49:37.990Z,64
2023-07-31T11:51:38.687Z,62.5
2023-07-31T11:53:44.628Z,61.9
2023-07-31T11:55:40.237Z,62.5
2023-07-31T11:57:43.026Z,62.5
2023-07-31T11:59:41.644Z,62.5
2023-07-31T12:01:41.698Z,63.2
2023-07-31T12:03:42.730Z,63.2
2023-07-31T12:05:42.626Z,62.4
2023-07-31T12:07:46.074Z,62.4
2023-07-31T12:09:52.163Z,61.8
2023-07-31T12:11:44.687Z,62
2023-07-31T12:13:44.754Z,62.4
2023-07-31T12:15:46.452Z,62.3
2023-07-31T12:17:48.118Z,62.3
2023-07-31T12:19:49.628Z,60.9
2023-07-31T12:21:47.103Z,61.8
2023-07-31T12:23:47.706Z,63.2
2023-07-31T12:25:48.272Z,63.2
2023-07-31T12:27:51.177Z,63.2
2023-07-31T12:29:49.286Z,63.2
2023-07-31T12:31:49.814Z,63.1
2023-07-31T12:33:51.732Z,63.1
2023-07-31T12:35:52.198Z,63.1
2023-07-31T12:37:51.471Z,63.1
2023-07-31T12:39:51.990Z,61.8
2023-07-31T12:41:52.981Z,62.3
2023-07-31T12:43:53.025Z,62.9
2023-07-31T12:45:55.240Z,62.9
2023-07-31T12:47:54.201Z,62.9
2023-07-31T12:49:54.648Z,62.9
2023-07-31T12:51:55.219Z,63
2023-07-31T12:53:55.815Z,62.1
2023-07-31T12:55:56.804Z,62.1
2023-07-31T12:57:56.883Z,61.9
2023-07-31T12:59:57.443Z,62.6
2023-07-31T13:01:57.979Z,61.9
2023-07-31T13:03:58.509Z,62.6
2023-07-31T13:05:59.092Z,62.2
2023-07-31T13:08:00.090Z,62.2
2023-07-31T13:10:00.133Z,62.2
2023-07-31T13:12:00.662Z,61.7
2023-07-31T13:14:01.236Z,62.3
2023-07-31T13:16:01.777Z,62.3
2023-07-31T13:18:02.529Z,62.8
2023-07-31T13:20:03.528Z,62.3
2023-07-31T13:22:03.750Z,61.9
2023-07-31T13:24:04.357Z,63
2023-07-31T13:26:04.451Z,63
2023-07-31T13:28:04.942Z,63
2023-07-31T13:30:06.887Z,62.4
2023-07-31T13:32:06.377Z,63.2
2023-07-31T13:34:06.496Z,62.2
2023-07-31T13:36:07.188Z,62.8
2023-07-31T13:38:07.678Z,61.4
2023-07-31T13:40:09.229Z,61.4
2023-07-31T13:42:09.365Z,61.1
2023-07-31T13:44:09.329Z,62.7
2023-07-31T13:46:09.980Z,62.7
2023-07-31T13:48:10.614Z,62.7
2023-07-31T13:50:10.975Z,63.2
2023-07-31T13:52:11.414Z,64
2023-07-31T13:54:11.933Z,64
2023-07-31T13:56:12.703Z,63.2
2023-07-31T13:58:13.046Z,63.2
2023-07-31T14:00:14.561Z,64.3
2023-07-31T14:02:14.145Z,63.7
2023-07-31T14:04:14.753Z,63.7
2023-07-31T14:06:15.127Z,63.7
2023-07-31T14:08:15.759Z,63.7
2023-07-31T14:10:16.276Z,63.7
2023-07-31T14:12:31.772Z,63.2
2023-07-31T14:14:17.608Z,63.2
2023-07-31T14:16:18.014Z,63.1
2023-07-31T14:18:18.697Z,63.1
2023-07-31T14:20:19.161Z,62.9
2023-07-31T14:22:28.317Z,62.3
2023-07-31T14:24:19.833Z,62.3
2023-07-31T14:26:20.583Z,62.9
2023-07-31T14:28:21.024Z,62.9
2023-07-31T14:30:21.348Z,62.6
2023-07-31T14:32:22.702Z,62.6
2023-07-31T14:34:22.475Z,64.1
2023-07-31T14:36:22.919Z,64.1
2023-07-31T14:38:23.584Z,63.5
2023-07-31T14:40:23.925Z,64.4
2023-07-31T14:42:24.482Z,63.7
2023-07-31T14:44:24.993Z,64.4
2023-07-31T14:46:25.686Z,64.4
2023-07-31T14:48:26.317Z,64.4
2023-07-31T14:50:27.046Z,64.1
2023-07-31T14:52:27.073Z,65
2023-07-31T14:54:27.517Z,65
2023-07-31T14:56:28.140Z,65
2023-07-31T14:58:28.545Z,65
2023-07-31T15:00:29.200Z,64.8
2023-07-31T15:02:30.025Z,64.8
2023-07-31T15:04:30.293Z,65.4
2023-07-31T15:06:30.696Z,65.4
2023-07-31T15:08:31.234Z,65.4
2023-07-31T15:10:32.108Z,65.2
2023-07-31T15:12:32.375Z,65.2
2023-07-31T15:14:32.685Z,65.2
2023-07-31T15:16:33.178Z,65.2
2023-07-31T15:18:33.633Z,65.2
2023-07-31T15:20:34.252Z,66.2
2023-07-31T15:22:34.647Z,66.2
2023-07-31T15:24:35.162Z,66.2
2023-07-31T15:26:37.172Z,66.2
2023-07-31T15:28:36.300Z,65.1
2023-07-31T15:30:36.870Z,66.3
2023-07-31T15:32:38.439Z,65.6
2023-07-31T15:34:37.629Z,64.6
2023-07-31T15:36:38.443Z,64.6
2023-07-31T15:38:38.741Z,65.2
2023-07-31T15:40:39.484Z,64.9
2023-07-31T15:42:39.667Z,64.9
2023-07-31T15:44:40.274Z,64.9
2023-07-31T15:46:40.895Z,64.9
2023-07-31T15:48:41.266Z,64.7
2023-07-31T15:50:41.692Z,64.8
2023-07-31T15:52:42.147Z,64.8
2023-07-31T15:54:42.636Z,64.8
2023-07-31T15:56:43.167Z,64.8
2023-07-31T15:58:43.713Z,65.4
2023-07-31T16:00:44.332Z,65.9
2023-07-31T16:02:45.076Z,65.9
2023-07-31T16:04:45.058Z,65.9
2023-07-31T16:06:46.103Z,67.1
2023-07-31T16:08:46.587Z,66.5
2023-07-31T16:10:46.707Z,66.5
2023-07-31T16:12:47.726Z,66.5
2023-07-31T16:14:47.586Z,67.5
2023-07-31T16:16:48.100Z,67.5
2023-07-31T16:18:48.660Z,66.6
2023-07-31T16:20:49.102Z,66.8
2023-07-31T16:22:49.657Z,67.5
2023-07-31T16:24:50.983Z,67.5
2023-07-31T16:26:50.556Z,67.5
2023-07-31T16:28:51.112Z,67.5
2023-07-31T16:30:51.544Z,67.4
2023-07-31T16:32:52.757Z,69.1
2023-07-31T16:34:52.470Z,69.1
2023-07-31T16:36:53.114Z,68.2
2023-07-31T16:38:53.448Z,68.2
2023-07-31T16:40:53.932Z,68.9
2023-07-31T16:42:54.400Z,68.9
2023-07-31T16:44:54.890Z,68.9
2023-07-31T16:46:55.838Z,68.3
2023-07-31T16:48:55.854Z,68.9
2023-07-31T16:50:56.384Z,69.4
2023-07-31T16:52:56.947Z,70
2023-07-31T16:54:57.695Z,70
2023-07-31T16:57:00.444Z,71.1
2023-07-31T16:58:58.216Z,71.1
2023-07-31T17:00:58.602Z,71.9
2023-07-31T17:02:59.345Z,73
2023-07-31T17:04:59.571Z,73
2023-07-31T17:07:00.009Z,73.8
2023-07-31T17:09:00.700Z,73.8
2023-07-31T17:11:00.954Z,74.2
2023-07-31T17:13:01.352Z,76
2023-07-31T17:15:01.765Z,75.8
2023-07-31T17:17:02.448Z,75.8
2023-07-31T17:19:03.406Z,75.7
2023-07-31T17:21:03.592Z,76.5
2023-07-31T17:23:03.688Z,76.5
2023-07-31T17:25:04.580Z,77.2
2023-07-31T17:27:04.771Z,77.7
2023-07-31T17:29:05.042Z,78.7
2023-07-31T17:31:05.525Z,79.6
2023-07-31T17:33:06.000Z,80.2
2023-07-31T17:35:06.864Z,79.9
2023-07-31T17:37:06.703Z,79.9
2023-07-31T17:39:07.150Z,80.8
2023-07-31T17:41:07.737Z,81.1
2023-07-31T17:43:08.754Z,82.3
2023-07-31T17:45:09.051Z,83
2023-07-31T17:47:09.119Z,83
2023-07-31T17:49:09.511Z,83.7
2023-07-31T17:51:09.796Z,83.8
2023-07-31T17:53:10.299Z,85.1
2023-07-31T17:55:10.637Z,84
2023-07-31T17:57:11.018Z,82.2
2023-07-31T17:59:11.550Z,82.2
2023-07-31T18:01:11.977Z,82.5
2023-07-31T18:03:12.417Z,83.1
2023-07-31T18:05:12.831Z,83.3
2023-07-31T18:07:13.158Z,83.3
2023-07-31T18:09:13.545Z,81.9
2023-07-31T18:11:14.071Z,81.8
2023-07-31T18:13:15.313Z,81.8
2023-07-31T18:15:14.838Z,83
2023-07-31T18:17:15.273Z,82.1
2023-07-31T18:19:16.151Z,83.2
2023-07-31T18:21:15.866Z,82.1
2023-07-31T18:23:16.350Z,82.9
2023-07-31T18:25:16.833Z,82.9
2023-07-31T18:27:17.036Z,84.4
2023-07-31T18:29:17.485Z,82.9
2023-07-31T18:31:17.852Z,83.6
2023-07-31T18:33:18.145Z,83.6
2023-07-31T18:35:19.068Z,83.6
2023-07-31T18:37:19.024Z,84.4
2023-07-31T18:39:19.332Z,85.2
2023-07-31T18:41:19.728Z,84.2
2023-07-31T18:43:20.007Z,84.2
2023-07-31T18:45:20.408Z,84.9
2023-07-31T18:47:20.989Z,86
2023-07-31T18:49:21.706Z,86
2023-07-31T18:51:21.527Z,86
2023-07-31T18:53:22.006Z,87.8
2023-07-31T18:55:22.234Z,86.4
2023-07-31T18:57:22.726Z,87.3
2023-07-31T18:59:22.945Z,85.6
2023-07-31T19:01:24.279Z,87.3
2023-07-31T19:03:24.091Z,87.8
2023-07-31T19:05:24.375Z,88.4
2023-07-31T19:07:24.495Z,88.4
2023-07-31T19:09:29.387Z,89.6
2023-07-31T19:11:32.664Z,89
2023-07-31T19:13:25.560Z,89.7
2023-07-31T19:15:26.073Z,88.9
2023-07-31T19:17:26.334Z,89.5
2023-07-31T19:19:26.592Z,89.4
2023-07-31T19:21:26.920Z,90.2
2023-07-31T19:23:27.163Z,90.1
2023-07-31T19:25:27.618Z,90.1
2023-07-31T19:27:27.947Z,87.8
2023-07-31T19:29:28.287Z,88.8
2023-07-31T19:31:28.545Z,88.8
2023-07-31T19:33:28.989Z,89.3
2023-07-31T19:35:29.272Z,88.3
2023-07-31T19:37:29.735Z,89
2023-07-31T19:39:30.060Z,89.7
2023-07-31T19:41:30.917Z,88.2
2023-07-31T19:43:30.785Z,89.3
2023-07-31T19:45:31.032Z,89.3
2023-07-31T19:47:31.786Z,88.8
2023-07-31T19:49:31.732Z,89.4
2023-07-31T19:51:32.085Z,88.3
2023-07-31T19:53:32.418Z,89
2023-07-31T19:55:32.815Z,89
2023-07-31T19:57:33.039Z,89
2023-07-31T19:59:33.465Z,90.4
2023-07-31T20:01:33.782Z,89.6
2023-07-31T20:03:34.048Z,89.6
2023-07-31T20:05:34.421Z,89.2
2023-07-31T20:07:34.888Z,89.2
2023-07-31T20:09:35.155Z,89.2
2023-07-31T20:11:35.451Z,88.8
2023-07-31T20:13:35.946Z,88.8
2023-07-31T20:15:36.300Z,88.8
2023-07-31T20:17:36.525Z,88.8
2023-07-31T20:19:36.944Z,90.3
2023-07-31T20:21:37.459Z,90.3
2023-07-31T20:23:42.870Z,90.3
2023-07-31T20:25:37.862Z,90.8
2023-07-31T20:27:38.258Z,91.1
2023-07-31T20:29:38.497Z,92.6
2023-07-31T20:31:39.024Z,91.9
2023-07-31T20:33:39.316Z,91.1
2023-07-31T20:35:39.564Z,91.1
2023-07-31T20:37:39.851Z,91.6
2023-07-31T20:39:40.454Z,91.2
2023-07-31T20:41:40.563Z,91.2
2023-07-31T20:43:40.884Z,91.6
2023-07-31T20:45:41.513Z,92.8
2023-07-31T20:47:41.567Z,92.5
2023-07-31T20:49:41.887Z,93.5
2023-07-31T20:51:42.304Z,93.4
2023-07-31T20:53:42.701Z,93.4
2023-07-31T20:55:42.868Z,91.9
2023-07-31T20:57:43.281Z,91.3
2023-07-31T20:59:43.560Z,92
2023-07-31T21:01:43.839Z,91
2023-07-31T21:03:44.564Z,91
2023-07-31T21:05:50.069Z,91
2023-07-31T21:07:44.815Z,91
2023-07-31T21:09:45.279Z,91.9
2023-07-31T21:11:45.462Z,90.8
2023-07-31T21:13:45.921Z,90.8
2023-07-31T21:15:46.297Z,91.3
2023-07-31T21:17:47.152Z,92
2023-07-31T21:19:46.854Z,91.3
2023-07-31T21:21:47.048Z,91.3
2023-07-31T21:23:47.455Z,92.8
2023-07-31T21:25:48.232Z,92.2
2023-07-31T21:27:48.002Z,91.6
2023-07-31T21:29:48.506Z,92.5
2023-07-31T21:31:48.741Z,92.5
2023-07-31T21:33:48.905Z,94
2023-07-31T21:35:49.233Z,92.1
2023-07-31T21:37:49.624Z,92.1
2023-07-31T21:39:49.898Z,91.3
2023-07-31T21:41:50.152Z,92.3
2023-07-31T21:43:50.778Z,92.9
2023-07-31T21:45:50.958Z,91.7
2023-07-31T21:47:51.506Z,92.2
2023-07-31T21:49:51.515Z,92.2
2023-07-31T21:51:51.773Z,93.1
2023-07-31T21:53:52.043Z,93.1
2023-07-31T21:55:52.421Z,93.1
2023-07-31T21:57:52.659Z,93.9
2023-07-31T21:59:53.547Z,93.9
2023-07-31T22:01:53.361Z,93.3
2023-07-31T22:03:53.583Z,93.3
2023-07-31T22:05:53.913Z,93.8
2023-07-31T22:07:54.296Z,93.8
2023-07-31T22:09:54.516Z,94.4
2023-07-31T22:11:54.809Z,93
2023-07-31T22:13:55.356Z,94.8
2023-07-31T22:15:55.431Z,93.6
2023-07-31T22:17:55.789Z,93.6
2023-07-31T22:19:56.120Z,93.6
2023-07-31T22:21:56.311Z,94.3
2023-07-31T22:23:56.573Z,93.9
2023-07-31T22:25:56.983Z,93.9
2023-07-31T22:28:01.504Z,93.9
2023-07-31T22:29:57.494Z,93.9
2023-07-31T22:31:57.953Z,94.3
2023-07-31T22:33:58.114Z,94.3
2023-07-31T22:35:58.426Z,94.3
2023-07-31T22:37:58.843Z,94.3
2023-07-31T22:39:59.103Z,94.9
2023-07-31T22:41:59.363Z,95.8
2023-07-31T22:43:59.822Z,95.2
2023-07-31T22:46:00.030Z,94.6
2023-07-31T22:48:00.295Z,94.6
2023-07-31T22:50:00.738Z,95.4
2023-07-31T22:52:00.817Z,94.8
2023-07-31T22:54:01.369Z,94.8
2023-07-31T22:56:03.674Z,94.8
2023-07-31T22:58:01.768Z,94.9
2023-07-31T23:00:02.687Z,94.9
2023-07-31T23:02:02.470Z,95.1
2023-07-31T23:04:02.820Z,95.6
2023-07-31T23:06:03.143Z,95.6
2023-07-31T23:08:03.342Z,95.6
2023-07-31T23:10:04.084Z,96.3
2023-07-31T23:12:04.516Z,95.2
2023-07-31T23:14:04.478Z,96.2
2023-07-31T23:16:04.718Z,96.2
2023-07-31T23:18:05.901Z,96.2
2023-07-31T23:20:06.130Z,95.6
2023-07-31T23:22:06.158Z,95.2
2023-07-31T23:24:05.495Z,96.3
2023-07-31T23:26:05.791Z,96.3
2023-07-31T23:28:07.661Z,97.2
2023-07-31T23:30:07.525Z,95.9
2023-07-31T23:32:07.293Z,97.2
2023-07-31T23:34:07.024Z,95.6
2023-07-31T23:36:09.333Z,96.4
2023-07-31T23:38:07.541Z,96.4
2023-07-31T23:40:08.547Z,96.4
2023-07-31T23:42:08.129Z,96.3
2023-07-31T23:44:08.396Z,96.3
2023-07-31T23:46:08.650Z,96.3
2023-07-31T23:48:09.078Z,96.3
2023-07-31T23:50:09.539Z,96.3
2023-07-31T23:52:09.456Z,96.6
2023-07-31T23:54:11.724Z,97.2
2023-07-31T23:56:10.032Z,96.5
2023-07-31T23:58:11.147Z,96.5
